sensor_id;sensor_type;location;lat;lon;timestamp;temperature;humidity
11961;DHT22;6040;49.358;11.140;2024-01-30T00:01:25;-0.80;99.90
11961;DHT22;6040;49.358;11.140;2024-01-30T00:03:52;-0.80;99.90
11961;DHT22;6040;49.358;11.140;2024-01-30T00:06:20;-0.90;99.90
11961;DHT22;6040;49.358;11.140;2024-01-30T00:08:48;-0.90;99.90
11961;DHT22;6040;49.358;11.140;2024-01-30T00:11:16;-0.90;99.90
11961;DHT22;6040;49.358;11.140;2024-01-30T00:13:42;-0.90;99.90
11961;DHT22;6040;49.358;11.140;2024-01-30T00:16:20;1.20;99.90
11961;DHT22;6040;49.358;11.140;2024-01-30T00:18:46;-0.90;99.90
11961;DHT22;6040;49.358;11.140;2024-01-30T00:21:14;-0.90;99.90
11961;DHT22;6040;49.358;11.140;2024-01-30T00:23:42;-0.80;99.90
11961;DHT22;6040;49.358;11.140;2024-01-30T00:26:09;-0.90;99.90
11961;DHT22;6040;49.358;11.140;2024-01-30T00:28:37;-0.90;99.90
11961;DHT22;6040;49.358;11.140;2024-01-30T00:31:04;-1.00;99.90
11961;DHT22;6040;49.358;11.140;2024-01-30T00:33:30;-1.10;99.90
11961;DHT22;6040;49.358;11.140;2024-01-30T00:35:57;-1.10;99.90
11961;DHT22;6040;49.358;11.140;2024-01-30T00:38:24;-1.10;99.90
11961;DHT22;6040;49.358;11.140;2024-01-30T00:40:52;-1.20;99.90
11961;DHT22;6040;49.358;11.140;2024-01-30T00:43:19;-1.20;99.90
11961;DHT22;6040;49.358;11.140;2024-01-30T00:45:46;-1.20;99.90
11961;DHT22;6040;49.358;11.140;2024-01-30T00:48:13;-1.20;99.90
11961;DHT22;6040;49.358;11.140;2024-01-30T00:50:40;-1.20;99.90
11961;DHT22;6040;49.358;11.140;2024-01-30T00:53:07;-1.30;99.90
11961;DHT22;6040;49.358;11.140;2024-01-30T00:55:33;-1.20;99.90
11961;DHT22;6040;49.358;11.140;2024-01-30T00:58:02;-1.20;99.90
11961;DHT22;6040;49.358;11.140;2024-01-30T01:00:29;-1.20;99.90
11961;DHT22;6040;49.358;11.140;2024-01-30T01:02:57;-1.30;99.90
11961;DHT22;6040;49.358;11.140;2024-01-30T01:05:24;-1.30;99.90
11961;DHT22;6040;49.358;11.140;2024-01-30T01:07:51;-1.30;99.90
11961;DHT22;6040;49.358;11.140;2024-01-30T01:10:18;-1.30;99.90
11961;DHT22;6040;49.358;11.140;2024-01-30T01:12:45;-1.30;99.90
11961;DHT22;6040;49.358;11.140;2024-01-30T01:15:13;-1.30;99.90
11961;DHT22;6040;49.358;11.140;2024-01-30T01:17:40;-1.30;99.90
11961;DHT22;6040;49.358;11.140;2024-01-30T01:20:08;-1.40;99.90
11961;DHT22;6040;49.358;11.140;2024-01-30T01:22:36;-1.40;99.90
11961;DHT22;6040;49.358;11.140;2024-01-30T01:25:04;-1.40;99.90
11961;DHT22;6040;49.358;11.140;2024-01-30T01:27:32;-1.40;99.90
11961;DHT22;6040;49.358;11.140;2024-01-30T01:30:00;-1.40;99.90
11961;DHT22;6040;49.358;11.140;2024-01-30T01:32:28;-1.40;99.90
11961;DHT22;6040;49.358;11.140;2024-01-30T01:34:55;-1.40;99.90
11961;DHT22;6040;49.358;11.140;2024-01-30T01:37:21;-1.40;99.90
11961;DHT22;6040;49.358;11.140;2024-01-30T01:39:52;-1.40;99.90
11961;DHT22;6040;49.358;11.140;2024-01-30T01:42:18;-1.50;99.90
11961;DHT22;6040;49.358;11.140;2024-01-30T01:44:45;-1.50;99.90
11961;DHT22;6040;49.358;11.140;2024-01-30T01:47:12;-1.50;99.90
11961;DHT22;6040;49.358;11.140;2024-01-30T01:49:40;-1.50;99.90
11961;DHT22;6040;49.358;11.140;2024-01-30T01:52:07;-1.50;99.90
11961;DHT22;6040;49.358;11.140;2024-01-30T01:54:34;-1.60;99.90
11961;DHT22;6040;49.358;11.140;2024-01-30T01:57:02;-1.60;99.90
11961;DHT22;6040;49.358;11.140;2024-01-30T01:59:29;-1.50;99.90
11961;DHT22;6040;49.358;11.140;2024-01-30T02:01:56;-1.50;99.90
11961;DHT22;6040;49.358;11.140;2024-01-30T02:04:23;-1.50;99.90
11961;DHT22;6040;49.358;11.140;2024-01-30T02:06:52;-1.50;99.90
11961;DHT22;6040;49.358;11.140;2024-01-30T02:09:19;-1.50;99.90
11961;DHT22;6040;49.358;11.140;2024-01-30T02:11:45;-1.50;99.90
11961;DHT22;6040;49.358;11.140;2024-01-30T02:14:12;-1.50;99.90
11961;DHT22;6040;49.358;11.140;2024-01-30T02:16:39;-1.40;99.90
11961;DHT22;6040;49.358;11.140;2024-01-30T02:19:06;-1.40;99.90
11961;DHT22;6040;49.358;11.140;2024-01-30T02:21:34;-1.30;99.90
11961;DHT22;6040;49.358;11.140;2024-01-30T02:24:03;-1.30;99.90
11961;DHT22;6040;49.358;11.140;2024-01-30T02:26:30;-1.20;99.90
11961;DHT22;6040;49.358;11.140;2024-01-30T02:28:57;-1.20;99.90
11961;DHT22;6040;49.358;11.140;2024-01-30T02:31:25;-1.10;99.90
11961;DHT22;6040;49.358;11.140;2024-01-30T02:33:52;-0.90;99.90
11961;DHT22;6040;49.358;11.140;2024-01-30T02:36:19;-0.80;99.90
11961;DHT22;6040;49.358;11.140;2024-01-30T02:38:47;1.60;99.90
11961;DHT22;6040;49.358;11.140;2024-01-30T02:41:13;1.60;99.90
11961;DHT22;6040;49.358;11.140;2024-01-30T02:43:40;-0.60;99.90
11961;DHT22;6040;49.358;11.140;2024-01-30T02:46:07;-0.70;99.90
11961;DHT22;6040;49.358;11.140;2024-01-30T02:48:34;-0.70;99.90
11961;DHT22;6040;49.358;11.140;2024-01-30T02:51:01;-0.80;99.90
11961;DHT22;6040;49.358;11.140;2024-01-30T02:53:27;-0.70;99.90
11961;DHT22;6040;49.358;11.140;2024-01-30T02:55:56;-0.70;99.90
11961;DHT22;6040;49.358;11.140;2024-01-30T02:58:22;-0.70;99.90
11961;DHT22;6040;49.358;11.140;2024-01-30T03:00:49;-0.80;99.90
11961;DHT22;6040;49.358;11.140;2024-01-30T03:03:16;-0.80;99.90
11961;DHT22;6040;49.358;11.140;2024-01-30T03:05:43;-0.80;99.90
11961;DHT22;6040;49.358;11.140;2024-01-30T03:08:09;-0.90;99.90
11961;DHT22;6040;49.358;11.140;2024-01-30T03:10:36;-0.90;99.90
11961;DHT22;6040;49.358;11.140;2024-01-30T03:13:04;-0.90;99.90
11961;DHT22;6040;49.358;11.140;2024-01-30T03:15:31;-0.90;99.90
11961;DHT22;6040;49.358;11.140;2024-01-30T03:17:58;-0.90;99.90
11961;DHT22;6040;49.358;11.140;2024-01-30T03:20:25;-0.90;99.90
11961;DHT22;6040;49.358;11.140;2024-01-30T03:22:52;-0.90;99.90
11961;DHT22;6040;49.358;11.140;2024-01-30T03:25:18;-0.90;99.90
11961;DHT22;6040;49.358;11.140;2024-01-30T03:27:45;-0.90;99.90
11961;DHT22;6040;49.358;11.140;2024-01-30T03:30:14;-0.90;99.90
11961;DHT22;6040;49.358;11.140;2024-01-30T03:32:40;-0.90;99.90
11961;DHT22;6040;49.358;11.140;2024-01-30T03:35:08;-0.90;99.90
11961;DHT22;6040;49.358;11.140;2024-01-30T03:37:35;-0.90;99.90
11961;DHT22;6040;49.358;11.140;2024-01-30T03:40:02;-1.00;99.90
11961;DHT22;6040;49.358;11.140;2024-01-30T03:42:29;-0.90;99.90
11961;DHT22;6040;49.358;11.140;2024-01-30T03:44:56;-1.00;99.90
11961;DHT22;6040;49.358;11.140;2024-01-30T03:47:24;-1.00;99.90
11961;DHT22;6040;49.358;11.140;2024-01-30T03:49:51;-1.00;99.90
11961;DHT22;6040;49.358;11.140;2024-01-30T03:52:18;-1.00;99.90
11961;DHT22;6040;49.358;11.140;2024-01-30T03:54:45;-1.00;99.90
11961;DHT22;6040;49.358;11.140;2024-01-30T03:57:12;-1.00;99.90
11961;DHT22;6040;49.358;11.140;2024-01-30T03:59:41;-1.00;99.90
11961;DHT22;6040;49.358;11.140;2024-01-30T04:02:09;-1.00;99.90
11961;DHT22;6040;49.358;11.140;2024-01-30T04:04:37;-1.00;99.90
11961;DHT22;6040;49.358;11.140;2024-01-30T04:07:04;-1.00;99.90
11961;DHT22;6040;49.358;11.140;2024-01-30T04:09:31;-1.00;99.90
11961;DHT22;6040;49.358;11.140;2024-01-30T04:11:58;-1.00;99.90
11961;DHT22;6040;49.358;11.140;2024-01-30T04:14:25;-0.10;99.90
11961;DHT22;6040;49.358;11.140;2024-01-30T04:16:51;-1.00;99.90
11961;DHT22;6040;49.358;11.140;2024-01-30T04:19:18;-1.00;99.90
11961;DHT22;6040;49.358;11.140;2024-01-30T04:21:46;-1.00;99.90
11961;DHT22;6040;49.358;11.140;2024-01-30T04:24:13;1.50;99.90
11961;DHT22;6040;49.358;11.140;2024-01-30T04:26:42;-1.00;99.90
11961;DHT22;6040;49.358;11.140;2024-01-30T04:29:09;-1.10;99.90
11961;DHT22;6040;49.358;11.140;2024-01-30T04:31:36;-1.10;99.90
11961;DHT22;6040;49.358;11.140;2024-01-30T04:34:03;0.60;99.90
11961;DHT22;6040;49.358;11.140;2024-01-30T04:36:29;-1.10;99.90
11961;DHT22;6040;49.358;11.140;2024-01-30T04:38:58;-1.10;99.90
11961;DHT22;6040;49.358;11.140;2024-01-30T04:41:24;-1.10;99.90
11961;DHT22;6040;49.358;11.140;2024-01-30T04:43:51;-1.10;99.90
11961;DHT22;6040;49.358;11.140;2024-01-30T04:46:18;-1.10;99.90
11961;DHT22;6040;49.358;11.140;2024-01-30T04:48:45;-1.10;99.90
11961;DHT22;6040;49.358;11.140;2024-01-30T04:51:12;-1.10;99.90
11961;DHT22;6040;49.358;11.140;2024-01-30T04:53:38;-1.10;99.90
11961;DHT22;6040;49.358;11.140;2024-01-30T04:56:07;0.20;99.90
11961;DHT22;6040;49.358;11.140;2024-01-30T04:58:34;-1.10;99.90
11961;DHT22;6040;49.358;11.140;2024-01-30T05:01:00;1.60;99.90
11961;DHT22;6040;49.358;11.140;2024-01-30T05:03:28;-1.10;99.90
11961;DHT22;6040;49.358;11.140;2024-01-30T05:05:55;-1.10;99.90
11961;DHT22;6040;49.358;11.140;2024-01-30T05:08:22;-1.00;99.90
11961;DHT22;6040;49.358;11.140;2024-01-30T05:10:48;-0.20;99.90
11961;DHT22;6040;49.358;11.140;2024-01-30T05:13:16;-1.00;99.90
11961;DHT22;6040;49.358;11.140;2024-01-30T05:15:43;-1.00;99.90
11961;DHT22;6040;49.358;11.140;2024-01-30T05:18:10;-1.00;99.90
11961;DHT22;6040;49.358;11.140;2024-01-30T05:20:37;-1.00;99.90
11961;DHT22;6040;49.358;11.140;2024-01-30T05:23:04;1.60;99.90
11961;DHT22;6040;49.358;11.140;2024-01-30T05:25:31;-1.00;99.90
11961;DHT22;6040;49.358;11.140;2024-01-30T05:27:58;-1.00;99.90
11961;DHT22;6040;49.358;11.140;2024-01-30T05:30:26;-0.90;99.90
11961;DHT22;6040;49.358;11.140;2024-01-30T05:32:53;-1.00;99.90
11961;DHT22;6040;49.358;11.140;2024-01-30T05:35:19;1.40;99.90
11961;DHT22;6040;49.358;11.140;2024-01-30T05:37:48;-1.00;99.90
11961;DHT22;6040;49.358;11.140;2024-01-30T05:40:15;-1.00;99.90
11961;DHT22;6040;49.358;11.140;2024-01-30T05:42:42;-1.00;99.90
11961;DHT22;6040;49.358;11.140;2024-01-30T05:45:09;-1.00;99.90
11961;DHT22;6040;49.358;11.140;2024-01-30T05:47:39;-1.00;99.90
11961;DHT22;6040;49.358;11.140;2024-01-30T05:50:07;0.90;99.90
11961;DHT22;6040;49.358;11.140;2024-01-30T05:52:34;-0.90;99.90
11961;DHT22;6040;49.358;11.140;2024-01-30T05:55:00;-1.00;99.90
11961;DHT22;6040;49.358;11.140;2024-01-30T05:57:27;-1.00;99.90
11961;DHT22;6040;49.358;11.140;2024-01-30T05:59:54;-1.00;99.90
11961;DHT22;6040;49.358;11.140;2024-01-30T06:02:21;-1.00;99.90
11961;DHT22;6040;49.358;11.140;2024-01-30T06:04:49;1.90;99.90
11961;DHT22;6040;49.358;11.140;2024-01-30T06:07:16;-1.00;99.90
11961;DHT22;6040;49.358;11.140;2024-01-30T06:09:43;-1.00;99.90
11961;DHT22;6040;49.358;11.140;2024-01-30T06:12:11;-1.00;99.90
11961;DHT22;6040;49.358;11.140;2024-01-30T06:14:38;-1.00;99.90
11961;DHT22;6040;49.358;11.140;2024-01-30T06:17:05;-1.00;99.90
11961;DHT22;6040;49.358;11.140;2024-01-30T06:19:32;-1.00;99.90
11961;DHT22;6040;49.358;11.140;2024-01-30T06:22:00;-0.90;99.90
11961;DHT22;6040;49.358;11.140;2024-01-30T06:24:29;-0.90;99.90
11961;DHT22;6040;49.358;11.140;2024-01-30T06:26:56;-0.90;99.90
11961;DHT22;6040;49.358;11.140;2024-01-30T06:29:23;-0.90;99.90
11961;DHT22;6040;49.358;11.140;2024-01-30T06:31:52;-0.80;99.90
11961;DHT22;6040;49.358;11.140;2024-01-30T06:34:19;-0.80;99.90
11961;DHT22;6040;49.358;11.140;2024-01-30T06:36:45;0.20;99.90
11961;DHT22;6040;49.358;11.140;2024-01-30T06:39:14;1.30;99.90
11961;DHT22;6040;49.358;11.140;2024-01-30T06:41:40;-0.60;99.90
11961;DHT22;6040;49.358;11.140;2024-01-30T06:44:07;1.80;99.90
11961;DHT22;6040;49.358;11.140;2024-01-30T06:46:35;-0.50;99.90
11961;DHT22;6040;49.358;11.140;2024-01-30T06:49:02;-0.50;99.90
11961;DHT22;6040;49.358;11.140;2024-01-30T06:51:29;-0.50;99.90
11961;DHT22;6040;49.358;11.140;2024-01-30T06:53:56;-0.50;99.90
11961;DHT22;6040;49.358;11.140;2024-01-30T06:56:24;-0.50;99.90
11961;DHT22;6040;49.358;11.140;2024-01-30T06:58:51;-0.50;99.90
11961;DHT22;6040;49.358;11.140;2024-01-30T07:01:18;-0.40;99.90
11961;DHT22;6040;49.358;11.140;2024-01-30T07:03:45;-0.10;99.90
11961;DHT22;6040;49.358;11.140;2024-01-30T07:06:11;-0.20;99.90
11961;DHT22;6040;49.358;11.140;2024-01-30T07:08:38;-0.20;99.90
11961;DHT22;6040;49.358;11.140;2024-01-30T07:11:05;2.20;99.90
11961;DHT22;6040;49.358;11.140;2024-01-30T07:13:34;-0.10;99.90
11961;DHT22;6040;49.358;11.140;2024-01-30T07:16:01;0.00;99.90
11961;DHT22;6040;49.358;11.140;2024-01-30T07:18:28;0.10;99.90
11961;DHT22;6040;49.358;11.140;2024-01-30T07:20:54;0.20;99.90
11961;DHT22;6040;49.358;11.140;2024-01-30T07:23:21;0.40;99.90
11961;DHT22;6040;49.358;11.140;2024-01-30T07:25:48;0.40;99.90
11961;DHT22;6040;49.358;11.140;2024-01-30T07:28:15;0.60;99.90
11961;DHT22;6040;49.358;11.140;2024-01-30T07:30:44;0.70;99.90
11961;DHT22;6040;49.358;11.140;2024-01-30T07:33:11;0.90;99.90
11961;DHT22;6040;49.358;11.140;2024-01-30T07:35:38;1.20;99.90
11961;DHT22;6040;49.358;11.140;2024-01-30T07:38:05;1.30;99.90
11961;DHT22;6040;49.358;11.140;2024-01-30T07:40:31;1.50;99.90
11961;DHT22;6040;49.358;11.140;2024-01-30T07:42:59;2.70;99.90
11961;DHT22;6040;49.358;11.140;2024-01-30T07:45:26;2.20;99.90
11961;DHT22;6040;49.358;11.140;2024-01-30T07:47:59;1.90;99.90
11961;DHT22;6040;49.358;11.140;2024-01-30T07:50:26;2.40;99.90
11961;DHT22;6040;49.358;11.140;2024-01-30T07:52:53;4.40;99.90
11961;DHT22;6040;49.358;11.140;2024-01-30T07:55:20;4.20;99.90
11961;DHT22;6040;49.358;11.140;2024-01-30T07:57:51;5.90;99.90
11961;DHT22;6040;49.358;11.140;2024-01-30T08:00:19;5.50;99.90
11961;DHT22;6040;49.358;11.140;2024-01-30T08:02:46;5.70;99.90
11961;DHT22;6040;49.358;11.140;2024-01-30T08:05:21;5.50;99.90
11961;DHT22;6040;49.358;11.140;2024-01-30T08:07:49;7.20;99.90
11961;DHT22;6040;49.358;11.140;2024-01-30T08:10:16;5.00;99.90
11961;DHT22;6040;49.358;11.140;2024-01-30T08:12:43;6.80;99.90
11961;DHT22;6040;49.358;11.140;2024-01-30T08:15:11;4.90;99.90
11961;DHT22;6040;49.358;11.140;2024-01-30T08:17:38;4.80;99.90
11961;DHT22;6040;49.358;11.140;2024-01-30T08:20:08;4.30;99.90
11961;DHT22;6040;49.358;11.140;2024-01-30T08:22:38;4.20;99.90
11961;DHT22;6040;49.358;11.140;2024-01-30T08:25:06;4.00;99.90
11961;DHT22;6040;49.358;11.140;2024-01-30T08:27:33;4.10;99.90
11961;DHT22;6040;49.358;11.140;2024-01-30T08:30:01;4.10;99.90
11961;DHT22;6040;49.358;11.140;2024-01-30T08:32:28;4.10;99.90
11961;DHT22;6040;49.358;11.140;2024-01-30T08:34:54;4.00;99.90
11961;DHT22;6040;49.358;11.140;2024-01-30T08:37:21;3.70;99.90
11961;DHT22;6040;49.358;11.140;2024-01-30T08:39:49;3.70;99.90
11961;DHT22;6040;49.358;11.140;2024-01-30T08:42:16;3.80;99.90
11961;DHT22;6040;49.358;11.140;2024-01-30T08:44:44;4.00;99.90
11961;DHT22;6040;49.358;11.140;2024-01-30T08:47:10;4.30;99.90
11961;DHT22;6040;49.358;11.140;2024-01-30T08:49:37;4.50;99.90
11961;DHT22;6040;49.358;11.140;2024-01-30T08:52:04;4.60;99.90
11961;DHT22;6040;49.358;11.140;2024-01-30T08:54:32;4.40;99.90
11961;DHT22;6040;49.358;11.140;2024-01-30T08:57:02;5.90;99.90
11961;DHT22;6040;49.358;11.140;2024-01-30T08:59:29;4.30;99.90
11961;DHT22;6040;49.358;11.140;2024-01-30T09:01:56;4.30;99.90
11961;DHT22;6040;49.358;11.140;2024-01-30T09:04:24;4.20;99.90
11961;DHT22;6040;49.358;11.140;2024-01-30T09:06:51;4.30;99.90
11961;DHT22;6040;49.358;11.140;2024-01-30T09:09:18;4.40;99.90
11961;DHT22;6040;49.358;11.140;2024-01-30T09:11:46;4.30;99.90
11961;DHT22;6040;49.358;11.140;2024-01-30T09:14:14;4.30;99.90
11961;DHT22;6040;49.358;11.140;2024-01-30T09:16:41;6.80;99.90
11961;DHT22;6040;49.358;11.140;2024-01-30T09:19:07;4.40;99.90
11961;DHT22;6040;49.358;11.140;2024-01-30T09:21:34;4.40;99.90
11961;DHT22;6040;49.358;11.140;2024-01-30T09:24:02;4.40;99.90
11961;DHT22;6040;49.358;11.140;2024-01-30T09:26:29;4.50;99.90
11961;DHT22;6040;49.358;11.140;2024-01-30T09:28:56;6.00;99.90
11961;DHT22;6040;49.358;11.140;2024-01-30T09:31:24;6.40;99.90
11961;DHT22;6040;49.358;11.140;2024-01-30T09:33:51;6.40;99.90
11961;DHT22;6040;49.358;11.140;2024-01-30T09:36:19;4.90;99.90
11961;DHT22;6040;49.358;11.140;2024-01-30T09:38:46;5.00;99.90
11961;DHT22;6040;49.358;11.140;2024-01-30T09:41:13;5.10;99.90
11961;DHT22;6040;49.358;11.140;2024-01-30T09:43:42;5.40;99.90
11961;DHT22;6040;49.358;11.140;2024-01-30T09:46:15;5.40;99.90
11961;DHT22;6040;49.358;11.140;2024-01-30T09:48:46;5.60;99.90
11961;DHT22;6040;49.358;11.140;2024-01-30T09:51:14;6.00;99.90
11961;DHT22;6040;49.358;11.140;2024-01-30T09:53:42;6.50;99.90
11961;DHT22;6040;49.358;11.140;2024-01-30T09:56:10;7.00;99.90
11961;DHT22;6040;49.358;11.140;2024-01-30T09:58:38;7.50;99.90
11961;DHT22;6040;49.358;11.140;2024-01-30T10:01:06;8.20;99.90
11961;DHT22;6040;49.358;11.140;2024-01-30T10:03:33;8.60;99.90
11961;DHT22;6040;49.358;11.140;2024-01-30T10:06:01;8.80;99.90
11961;DHT22;6040;49.358;11.140;2024-01-30T10:08:28;9.00;99.90
11961;DHT22;6040;49.358;11.140;2024-01-30T10:10:55;9.50;99.90
11961;DHT22;6040;49.358;11.140;2024-01-30T10:13:22;8.90;99.90
11961;DHT22;6040;49.358;11.140;2024-01-30T10:15:49;9.00;99.90
11961;DHT22;6040;49.358;11.140;2024-01-30T10:18:16;8.80;99.90
11961;DHT22;6040;49.358;11.140;2024-01-30T10:20:43;9.00;99.90
11961;DHT22;6040;49.358;11.140;2024-01-30T10:23:11;8.30;99.90
11961;DHT22;6040;49.358;11.140;2024-01-30T10:25:38;8.40;99.90
11961;DHT22;6040;49.358;11.140;2024-01-30T10:28:05;8.50;99.90
11961;DHT22;6040;49.358;11.140;2024-01-30T10:30:32;8.30;99.90
11961;DHT22;6040;49.358;11.140;2024-01-30T10:32:59;11.20;99.90
11961;DHT22;6040;49.358;11.140;2024-01-30T10:35:26;8.50;99.90
11961;DHT22;6040;49.358;11.140;2024-01-30T10:37:53;8.20;99.90
11961;DHT22;6040;49.358;11.140;2024-01-30T10:40:28;8.10;99.90
11961;DHT22;6040;49.358;11.140;2024-01-30T10:42:55;8.20;99.90
11961;DHT22;6040;49.358;11.140;2024-01-30T10:45:22;8.40;99.90
11961;DHT22;6040;49.358;11.140;2024-01-30T10:47:50;8.30;99.90
11961;DHT22;6040;49.358;11.140;2024-01-30T10:50:17;8.30;99.90
11961;DHT22;6040;49.358;11.140;2024-01-30T10:52:45;8.30;99.90
11961;DHT22;6040;49.358;11.140;2024-01-30T10:55:12;8.40;99.90
11961;DHT22;6040;49.358;11.140;2024-01-30T10:57:41;8.60;99.90
11961;DHT22;6040;49.358;11.140;2024-01-30T11:00:10;8.60;99.90
11961;DHT22;6040;49.358;11.140;2024-01-30T11:02:39;8.60;99.90
11961;DHT22;6040;49.358;11.140;2024-01-30T11:05:06;8.50;99.90
11961;DHT22;6040;49.358;11.140;2024-01-30T11:07:34;8.40;99.90
11961;DHT22;6040;49.358;11.140;2024-01-30T11:10:02;8.40;99.90
11961;DHT22;6040;49.358;11.140;2024-01-30T11:12:30;8.50;99.90
11961;DHT22;6040;49.358;11.140;2024-01-30T11:15:03;8.70;99.90
11961;DHT22;6040;49.358;11.140;2024-01-30T11:17:41;8.50;99.90
11961;DHT22;6040;49.358;11.140;2024-01-30T11:20:10;10.20;99.90
11961;DHT22;6040;49.358;11.140;2024-01-30T11:22:41;8.40;99.90
11961;DHT22;6040;49.358;11.140;2024-01-30T11:25:11;8.60;99.90
11961;DHT22;6040;49.358;11.140;2024-01-30T11:27:38;8.60;99.90
11961;DHT22;6040;49.358;11.140;2024-01-30T11:30:08;10.40;99.90
11961;DHT22;6040;49.358;11.140;2024-01-30T11:32:35;8.70;99.90
11961;DHT22;6040;49.358;11.140;2024-01-30T11:35:03;8.80;99.90
11961;DHT22;6040;49.358;11.140;2024-01-30T11:37:32;8.80;99.90
11961;DHT22;6040;49.358;11.140;2024-01-30T11:40:04;9.70;99.90
11961;DHT22;6040;49.358;11.140;2024-01-30T11:42:32;8.60;99.90
11961;DHT22;6040;49.358;11.140;2024-01-30T11:45:00;10.70;99.90
11961;DHT22;6040;49.358;11.140;2024-01-30T11:47:29;11.20;99.90
11961;DHT22;6040;49.358;11.140;2024-01-30T11:49:56;8.50;99.90
11961;DHT22;6040;49.358;11.140;2024-01-30T11:52:23;8.60;99.90
11961;DHT22;6040;49.358;11.140;2024-01-30T11:54:50;9.10;99.90
11961;DHT22;6040;49.358;11.140;2024-01-30T11:57:17;8.70;99.90
11961;DHT22;6040;49.358;11.140;2024-01-30T11:59:44;8.80;99.90
11961;DHT22;6040;49.358;11.140;2024-01-30T12:02:15;8.70;99.90
11961;DHT22;6040;49.358;11.140;2024-01-30T12:04:43;10.30;99.90
11961;DHT22;6040;49.358;11.140;2024-01-30T12:07:11;8.90;99.90
11961;DHT22;6040;49.358;11.140;2024-01-30T12:09:38;8.80;99.90
11961;DHT22;6040;49.358;11.140;2024-01-30T12:12:07;8.80;99.90
11961;DHT22;6040;49.358;11.140;2024-01-30T12:14:37;8.80;99.90
11961;DHT22;6040;49.358;11.140;2024-01-30T12:17:04;8.90;99.90
11961;DHT22;6040;49.358;11.140;2024-01-30T12:19:33;9.00;99.90
11961;DHT22;6040;49.358;11.140;2024-01-30T12:22:01;8.70;99.90
11961;DHT22;6040;49.358;11.140;2024-01-30T12:24:28;9.30;99.90
11961;DHT22;6040;49.358;11.140;2024-01-30T12:26:57;11.90;99.90
11961;DHT22;6040;49.358;11.140;2024-01-30T12:29:24;9.60;99.90
11961;DHT22;6040;49.358;11.140;2024-01-30T12:31:53;9.20;99.90
11961;DHT22;6040;49.358;11.140;2024-01-30T12:34:20;9.20;99.90
11961;DHT22;6040;49.358;11.140;2024-01-30T12:36:47;10.50;99.90
11961;DHT22;6040;49.358;11.140;2024-01-30T12:39:16;9.20;99.90
11961;DHT22;6040;49.358;11.140;2024-01-30T12:41:43;9.30;99.90
11961;DHT22;6040;49.358;11.140;2024-01-30T12:44:10;9.60;99.90
11961;DHT22;6040;49.358;11.140;2024-01-30T12:46:36;9.60;99.90
11961;DHT22;6040;49.358;11.140;2024-01-30T12:49:03;9.50;99.90
11961;DHT22;6040;49.358;11.140;2024-01-30T12:51:30;10.80;99.90
11961;DHT22;6040;49.358;11.140;2024-01-30T12:53:57;9.50;99.90
11961;DHT22;6040;49.358;11.140;2024-01-30T12:56:25;9.80;99.90
11961;DHT22;6040;49.358;11.140;2024-01-30T12:58:52;9.80;99.90
11961;DHT22;6040;49.358;11.140;2024-01-30T13:01:19;12.30;99.90
11961;DHT22;6040;49.358;11.140;2024-01-30T13:03:45;10.00;99.90
11961;DHT22;6040;49.358;11.140;2024-01-30T13:06:13;9.90;99.90
11961;DHT22;6040;49.358;11.140;2024-01-30T13:08:40;9.70;99.90
11961;DHT22;6040;49.358;11.140;2024-01-30T13:11:06;9.80;99.90
11961;DHT22;6040;49.358;11.140;2024-01-30T13:13:35;9.70;99.90
11961;DHT22;6040;49.358;11.140;2024-01-30T13:16:02;12.40;99.90
11961;DHT22;6040;49.358;11.140;2024-01-30T13:18:29;9.80;99.90
11961;DHT22;6040;49.358;11.140;2024-01-30T13:20:56;9.80;99.90
11961;DHT22;6040;49.358;11.140;2024-01-30T13:23:23;9.90;99.90
11961;DHT22;6040;49.358;11.140;2024-01-30T13:25:50;10.20;99.90
11961;DHT22;6040;49.358;11.140;2024-01-30T13:28:17;9.90;99.90
11961;DHT22;6040;49.358;11.140;2024-01-30T13:30:45;10.00;99.90
11961;DHT22;6040;49.358;11.140;2024-01-30T13:33:12;10.00;99.90
11961;DHT22;6040;49.358;11.140;2024-01-30T13:35:38;10.20;99.90
11961;DHT22;6040;49.358;11.140;2024-01-30T13:38:05;9.90;99.90
11961;DHT22;6040;49.358;11.140;2024-01-30T13:40:32;12.70;99.90
11961;DHT22;6040;49.358;11.140;2024-01-30T13:42:59;9.80;99.90
11961;DHT22;6040;49.358;11.140;2024-01-30T13:45:26;9.90;99.90
11961;DHT22;6040;49.358;11.140;2024-01-30T13:47:54;10.10;99.90
11961;DHT22;6040;49.358;11.140;2024-01-30T13:50:21;10.20;99.90
11961;DHT22;6040;49.358;11.140;2024-01-30T13:52:47;10.20;99.90
11961;DHT22;6040;49.358;11.140;2024-01-30T13:55:14;10.00;99.90
11961;DHT22;6040;49.358;11.140;2024-01-30T13:57:41;12.10;99.90
11961;DHT22;6040;49.358;11.140;2024-01-30T14:00:09;9.80;99.90
11961;DHT22;6040;49.358;11.140;2024-01-30T14:02:36;9.70;99.90
11961;DHT22;6040;49.358;11.140;2024-01-30T14:05:05;9.80;99.90
11961;DHT22;6040;49.358;11.140;2024-01-30T14:07:32;9.70;99.90
11961;DHT22;6040;49.358;11.140;2024-01-30T14:09:59;9.80;99.90
11961;DHT22;6040;49.358;11.140;2024-01-30T14:12:26;9.60;99.90
11961;DHT22;6040;49.358;11.140;2024-01-30T14:14:54;9.70;99.90
11961;DHT22;6040;49.358;11.140;2024-01-30T14:17:20;12.00;99.90
11961;DHT22;6040;49.358;11.140;2024-01-30T14:19:47;9.40;99.90
11961;DHT22;6040;49.358;11.140;2024-01-30T14:22:15;9.50;99.90
11961;DHT22;6040;49.358;11.140;2024-01-30T14:24:42;9.50;99.90
11961;DHT22;6040;49.358;11.140;2024-01-30T14:27:10;11.90;99.90
11961;DHT22;6040;49.358;11.140;2024-01-30T14:29:36;9.50;99.90
11961;DHT22;6040;49.358;11.140;2024-01-30T14:32:04;9.40;99.90
11961;DHT22;6040;49.358;11.140;2024-01-30T14:34:31;9.40;99.90
11961;DHT22;6040;49.358;11.140;2024-01-30T14:36:58;9.30;99.90
11961;DHT22;6040;49.358;11.140;2024-01-30T14:39:26;9.30;99.90
11961;DHT22;6040;49.358;11.140;2024-01-30T14:41:52;9.20;99.90
11961;DHT22;6040;49.358;11.140;2024-01-30T14:44:19;9.20;99.90
11961;DHT22;6040;49.358;11.140;2024-01-30T14:46:46;9.20;99.90
11961;DHT22;6040;49.358;11.140;2024-01-30T14:49:13;11.70;99.90
11961;DHT22;6040;49.358;11.140;2024-01-30T14:51:41;9.00;99.90
11961;DHT22;6040;49.358;11.140;2024-01-30T14:54:07;8.90;99.90
11961;DHT22;6040;49.358;11.140;2024-01-30T14:56:36;11.30;99.90
11961;DHT22;6040;49.358;11.140;2024-01-30T14:59:02;11.00;99.90
11961;DHT22;6040;49.358;11.140;2024-01-30T15:01:29;8.90;99.90
11961;DHT22;6040;49.358;11.140;2024-01-30T15:03:56;8.90;99.90
11961;DHT22;6040;49.358;11.140;2024-01-30T15:06:23;8.90;99.90
11961;DHT22;6040;49.358;11.140;2024-01-30T15:08:50;9.90;99.90
11961;DHT22;6040;49.358;11.140;2024-01-30T15:11:17;8.80;99.90
11961;DHT22;6040;49.358;11.140;2024-01-30T15:13:45;8.70;99.90
11961;DHT22;6040;49.358;11.140;2024-01-30T15:16:12;10.30;99.90
11961;DHT22;6040;49.358;11.140;2024-01-30T15:18:39;8.80;99.90
11961;DHT22;6040;49.358;11.140;2024-01-30T15:21:06;8.70;99.90
11961;DHT22;6040;49.358;11.140;2024-01-30T15:23:32;9.40;99.90
11961;DHT22;6040;49.358;11.140;2024-01-30T15:25:59;8.50;99.90
11961;DHT22;6040;49.358;11.140;2024-01-30T15:28:34;8.50;99.90
11961;DHT22;6040;49.358;11.140;2024-01-30T15:31:03;8.40;99.90
11961;DHT22;6040;49.358;11.140;2024-01-30T15:33:31;8.30;99.90
11961;DHT22;6040;49.358;11.140;2024-01-30T15:35:58;10.30;99.90
11961;DHT22;6040;49.358;11.140;2024-01-30T15:38:25;9.70;99.90